Yates, Illinois
Current Conditions -  °F | °C
As of 12:15 PM on Friday 24 Oct 2014 (Local Time) from KPNT Reporting Station
Clear Clear  
Wind Chill: 64°   Ceiling: Unl
Heat Index: 64°   Visibility: 10mi
Dew Point: 53°   Wind: 5mph
Humidity: 67%   Direction: 220°SW
Pressure: 30.07"   Gusts: NA
Location:  40.7409°N, 88.7189°W
Report Text: KPNT 241715Z AUTO 22004KT 10SM CLR 18/11 A3007 RMK AO2 T01770114
Loading
Personal Weather Stations






























Interactive Weather Map
Tropical Storm Tracking
New forecast layout! Learn more

10-Day Weather Forecast

Advertisements
Track Severe Weather on mobile